Time;durP1;ratioP1;P1;durP2;ratioP2;P2;SDS_P1;SDS_P2;PMS_P1;PMS_P2;Temp;Humidity;BMP_temperature;BMP_pressure;BME280_temperature;BME280_humidity;BME280_pressure;Samples;Min_cycle;Max_cycle;Signal;HPM_P1;HPM_P2
2023/11/15 00:00:13;;;;;;;;;;;18.60;57.60;;;;;;1492328;79;679;-57
2023/11/15 00:02:14;;;;;;;;;;;18.60;57.60;;;;;;1495895;79;1160;-59
2023/11/15 00:04:19;;;;;;;;;;;18.60;57.60;;;;;;1493850;79;696;-58
2023/11/15 00:06:20;;;;;;;;;;;18.60;57.60;;;;;;1482863;79;1776;-58
2023/11/15 00:08:22;;;;;;;;;;;18.60;57.60;;;;;;1483357;79;698;-57
2023/11/15 00:10:24;;;;;;;;;;;18.60;57.60;;;;;;1485967;79;1952;-60
2023/11/15 00:12:26;;;;;;;;;;;18.70;57.80;;;;;;1485972;79;1145;-59
2023/11/15 00:14:28;;;;;;;;;;;18.60;57.60;;;;;;1472765;79;806;-57
2023/11/15 00:16:30;;;;;;;;;;;18.60;57.60;;;;;;1486359;79;791;-60
2023/11/15 00:18:31;;;;;;;;;;;18.60;57.60;;;;;;1486057;79;689;-58
2023/11/15 00:20:36;;;;;;;;;;;18.60;57.60;;;;;;1486001;79;699;-56
2023/11/15 00:22:39;;;;;;;;;;;18.60;57.60;;;;;;1483893;79;1374;-58
2023/11/15 00:24:42;;;;;;;;;;;18.60;57.60;;;;;;1489693;79;814;-60
2023/11/15 00:26:44;;;;;;;;;;;18.60;57.50;;;;;;1484613;79;665;-57
2023/11/15 00:28:46;;;;;;;;;;;18.60;57.60;;;;;;1488419;79;1927;-59
2023/11/15 00:30:48;;;;;;;;;;;18.60;57.50;;;;;;1488658;79;916;-58
2023/11/15 00:32:50;;;;;;;;;;;18.60;57.60;;;;;;1483905;79;1158;-57
2023/11/15 00:34:52;;;;;;;;;;;18.60;57.60;;;;;;1486359;79;721;-53
2023/11/15 00:36:54;;;;;;;;;;;18.60;57.60;;;;;;1492337;79;1566;-58
2023/11/15 00:38:56;;;;;;;;;;;18.60;57.60;;;;;;1487848;79;674;-54
2023/11/15 00:40:58;;;;;;;;;;;18.60;57.50;;;;;;1494080;79;790;-55
2023/11/15 00:43:00;;;;;;;;;;;18.60;57.60;;;;;;1492000;79;1176;-59
2023/11/15 00:45:04;;;;;;;;;;;18.60;57.60;;;;;;1485910;79;705;-59
2023/11/15 00:47:05;;;;;;;;;;;18.60;57.60;;;;;;1475905;79;1658;-56
2023/11/15 00:49:07;;;;;;;;;;;18.60;57.60;;;;;;1489405;79;1935;-59
2023/11/15 00:51:10;;;;;;;;;;;18.60;57.50;;;;;;1491311;79;1359;-61
2023/11/15 00:53:13;;;;;;;;;;;18.60;57.60;;;;;;1487510;79;1165;-60
2023/11/15 00:55:16;;;;;;;;;;;18.60;57.50;;;;;;1489716;79;673;-58
2023/11/15 00:57:18;;;;;;;;;;;18.60;57.60;;;;;;1490330;79;919;-56
2023/11/15 00:59:22;;;;;;;;;;;18.60;57.60;;;;;;1485414;79;711;-57
2023/11/15 01:01:28;;;;;;;;;;;18.60;57.50;;;;;;1487388;79;753;-59
2023/11/15 01:03:29;;;;;;;;;;;18.60;57.60;;;;;;1482131;79;1611;-57
2023/11/15 01:05:31;;;;;;;;;;;18.60;57.50;;;;;;1486909;79;1542;-60
2023/11/15 01:07:33;;;;;;;;;;;18.60;57.50;;;;;;1485118;79;692;-58
2023/11/15 01:09:36;;;;;;;;;;;18.60;57.50;;;;;;1477540;79;1949;-57
2023/11/15 01:11:38;;;;;;;;;;;18.60;57.60;;;;;;1490416;79;764;-58
2023/11/15 01:13:40;;;;;;;;;;;18.60;57.60;;;;;;1484888;79;720;-59
2023/11/15 01:15:42;;;;;;;;;;;18.60;57.60;;;;;;1480557;79;680;-59
2023/11/15 01:17:44;;;;;;;;;;;18.60;57.60;;;;;;1485773;79;595;-60
2023/11/15 01:19:46;;;;;;;;;;;18.70;57.60;;;;;;1463422;80;1349;-56
2023/11/15 01:21:47;;;;;;;;;;;18.60;57.60;;;;;;1480574;79;1106;-59
2023/11/15 01:23:49;;;;;;;;;;;18.60;57.50;;;;;;1485257;79;719;-60
2023/11/15 01:25:51;;;;;;;;;;;18.60;57.60;;;;;;1488060;79;685;-59
2023/11/15 01:27:53;;;;;;;;;;;18.70;57.60;;;;;;1485483;79;756;-58
2023/11/15 01:29:55;;;;;;;;;;;18.60;57.50;;;;;;1481732;79;1949;-57
2023/11/15 01:31:57;;;;;;;;;;;18.60;57.50;;;;;;1486803;79;1124;-57
2023/11/15 01:33:59;;;;;;;;;;;18.60;57.50;;;;;;1486580;79;1596;-55
2023/11/15 01:36:01;;;;;;;;;;;18.60;57.50;;;;;;1483780;79;726;-57
2023/11/15 01:38:03;;;;;;;;;;;18.60;57.50;;;;;;1485577;79;681;-54
2023/11/15 01:40:06;;;;;;;;;;;18.60;57.50;;;;;;1485529;79;697;-56
2023/11/15 01:42:08;;;;;;;;;;;18.60;57.50;;;;;;1484147;79;1183;-57
2023/11/15 01:44:10;;;;;;;;;;;18.60;57.50;;;;;;1485066;79;761;-59
2023/11/15 01:46:14;;;;;;;;;;;18.60;57.50;;;;;;1487652;79;700;-59
2023/11/15 01:48:16;;;;;;;;;;;18.60;57.50;;;;;;1486506;79;1557;-57
2023/11/15 01:50:18;;;;;;;;;;;18.60;57.50;;;;;;1485815;79;1939;-60
2023/11/15 01:52:20;;;;;;;;;;;18.60;57.50;;;;;;1476565;79;1157;-59
2023/11/15 01:54:22;;;;;;;;;;;18.60;57.50;;;;;;1479981;79;689;-59
2023/11/15 01:56:24;;;;;;;;;;;18.60;57.50;;;;;;1489589;79;685;-54
2023/11/15 01:58:26;;;;;;;;;;;18.60;57.50;;;;;;1496272;79;690;-57
2023/11/15 02:00:28;;;;;;;;;;;18.60;57.50;;;;;;1483551;79;665;-57
2023/11/15 02:02:30;;;;;;;;;;;18.60;57.50;;;;;;1478332;79;1319;-57
2023/11/15 02:04:32;;;;;;;;;;;18.60;57.40;;;;;;1487488;79;672;-59
2023/11/15 02:06:35;;;;;;;;;;;18.60;57.50;;;;;;1491585;79;860;-59
2023/11/15 02:08:37;;;;;;;;;;;18.60;57.50;;;;;;1490497;79;690;-56
2023/11/15 02:10:39;;;;;;;;;;;18.60;57.50;;;;;;1476247;79;1915;-59
2023/11/15 02:12:41;;;;;;;;;;;18.60;57.50;;;;;;1487447;79;1143;-59
2023/11/15 02:14:43;;;;;;;;;;;18.60;57.50;;;;;;1492498;79;702;-59
2023/11/15 02:16:45;;;;;;;;;;;18.60;57.50;;;;;;1477507;79;1327;-59
2023/11/15 02:18:46;;;;;;;;;;;18.60;57.40;;;;;;1478602;79;683;-57
2023/11/15 02:20:49;;;;;;;;;;;18.60;57.50;;;;;;1483928;79;779;-57
2023/11/15 02:22:51;;;;;;;;;;;18.60;57.40;;;;;;1490261;79;1152;-60
2023/11/15 02:24:53;;;;;;;;;;;18.60;57.40;;;;;;1491243;79;675;-59
2023/11/15 02:26:55;;;;;;;;;;;18.60;57.40;;;;;;1483980;79;682;-58
2023/11/15 02:28:57;;;;;;;;;;;18.60;57.50;;;;;;1486443;79;649;-56
2023/11/15 02:30:59;;;;;;;;;;;18.60;57.50;;;;;;1487502;79;1927;-60
2023/11/15 02:33:01;;;;;;;;;;;18.60;57.40;;;;;;1479327;79;1149;-53
2023/11/15 02:35:03;;;;;;;;;;;18.60;57.40;;;;;;1492101;79;693;-57
2023/11/15 02:37:05;;;;;;;;;;;18.60;57.40;;;;;;1486381;79;708;-58
2023/11/15 02:39:06;;;;;;;;;;;18.60;57.50;;;;;;1484854;79;793;-59
2023/11/15 02:41:09;;;;;;;;;;;18.60;57.50;;;;;;1486591;79;777;-60
2023/11/15 02:43:11;;;;;;;;;;;18.60;57.50;;;;;;1487320;79;1546;-58
2023/11/15 02:45:14;;;;;;;;;;;18.60;57.40;;;;;;1487054;79;659;-60
2023/11/15 02:47:16;;;;;;;;;;;18.60;57.40;;;;;;1486442;79;692;-60
2023/11/15 02:49:17;;;;;;;;;;;18.60;57.40;;;;;;1483322;79;693;-59
2023/11/15 02:51:19;;;;;;;;;;;18.60;57.40;;;;;;1491038;79;1946;-59
2023/11/15 02:53:21;;;;;;;;;;;18.60;57.40;;;;;;1484010;79;1120;-58
2023/11/15 02:55:23;;;;;;;;;;;18.60;57.40;;;;;;1491446;79;716;-59
2023/11/15 02:57:25;;;;;;;;;;;18.60;57.40;;;;;;1494073;79;1538;-58
2023/11/15 02:59:27;;;;;;;;;;;18.60;57.40;;;;;;1481657;79;786;-56
2023/11/15 03:01:29;;;;;;;;;;;18.60;57.40;;;;;;1490311;79;764;-59
2023/11/15 03:03:31;;;;;;;;;;;18.60;57.40;;;;;;1493146;79;1116;-59
2023/11/15 03:05:32;;;;;;;;;;;18.60;57.40;;;;;;1480051;79;847;-59
2023/11/15 03:07:34;;;;;;;;;;;18.60;57.40;;;;;;1488725;79;691;-53
2023/11/15 03:09:36;;;;;;;;;;;18.60;57.40;;;;;;1478390;79;1943;-56
2023/11/15 03:11:38;;;;;;;;;;;18.60;57.40;;;;;;1485420;79;1559;-53
2023/11/15 03:13:40;;;;;;;;;;;18.60;57.40;;;;;;1493021;79;735;-57
2023/11/15 03:15:42;;;;;;;;;;;18.60;57.30;;;;;;1493136;79;780;-60
2023/11/15 03:17:44;;;;;;;;;;;18.60;57.40;;;;;;1478802;79;768;-57
2023/11/15 03:19:46;;;;;;;;;;;18.60;57.40;;;;;;1486000;79;695;-53
2023/11/15 03:21:48;;;;;;;;;;;18.60;57.40;;;;;;1490453;79;1157;-55
2023/11/15 03:23:50;;;;;;;;;;;18.60;57.30;;;;;;1486530;79;742;-56
2023/11/15 03:25:52;;;;;;;;;;;18.60;57.30;;;;;;1481890;79;1469;-60
2023/11/15 03:27:54;;;;;;;;;;;18.60;57.40;;;;;;1481905;79;738;-57
2023/11/15 03:29:56;;;;;;;;;;;18.60;57.40;;;;;;1478819;79;1915;-57
2023/11/15 03:31:58;;;;;;;;;;;18.60;57.40;;;;;;1477817;79;1145;-57
2023/11/15 03:34:00;;;;;;;;;;;18.60;57.40;;;;;;1482525;79;661;-57
2023/11/15 03:36:02;;;;;;;;;;;18.60;57.40;;;;;;1491221;79;713;-55
2023/11/15 03:38:04;;;;;;;;;;;18.60;57.40;;;;;;1493194;79;812;-58
2023/11/15 03:40:10;;;;;;;;;;;18.60;57.50;;;;;;1491366;79;1556;-59
2023/11/15 03:42:12;;;;;;;;;;;18.60;57.40;;;;;;1478900;79;1135;-58
2023/11/15 03:44:15;;;;;;;;;;;18.60;57.40;;;;;;1488469;79;814;-59
2023/11/15 03:46:17;;;;;;;;;;;18.60;57.50;;;;;;1485215;79;693;-58
2023/11/15 03:48:19;;;;;;;;;;;18.60;57.50;;;;;;1487154;79;663;-59
2023/11/15 03:50:21;;;;;;;;;;;18.60;57.50;;;;;;1477128;79;1916;-58
2023/11/15 03:52:23;;;;;;;;;;;18.60;57.40;;;;;;1490336;79;1110;-54
2023/11/15 03:54:25;;;;;;;;;;;18.60;57.50;;;;;;1479712;79;1289;-56
2023/11/15 03:56:27;;;;;;;;;;;18.60;57.50;;;;;;1488848;79;660;-58
2023/11/15 03:58:29;;;;;;;;;;;18.60;57.50;;;;;;1485454;79;784;-58
2023/11/15 04:00:31;;;;;;;;;;;18.60;57.50;;;;;;1490724;79;688;-58
2023/11/15 04:02:33;;;;;;;;;;;18.60;57.50;;;;;;1489591;79;1074;-60
2023/11/15 04:04:37;;;;;;;;;;;18.60;57.40;;;;;;1482741;79;654;-59
2023/11/15 04:06:38;;;;;;;;;;;18.60;57.40;;;;;;1495765;79;687;-60
2023/11/15 04:08:40;;;;;;;;;;;18.60;57.40;;;;;;1478412;79;1312;-59
2023/11/15 04:10:42;;;;;;;;;;;18.70;57.60;;;;;;1493210;79;1918;-53
2023/11/15 04:12:46;;;;;;;;;;;18.60;57.50;;;;;;1491046;79;1087;-59
2023/11/15 04:14:48;;;;;;;;;;;18.60;57.50;;;;;;1486903;79;647;-60
2023/11/15 04:16:50;;;;;;;;;;;18.60;57.40;;;;;;1485707;79;767;-60
2023/11/15 04:18:51;;;;;;;;;;;18.70;57.60;;;;;;1485903;79;744;-59
2023/11/15 04:20:53;;;;;;;;;;;18.60;57.40;;;;;;1489159;79;745;-59
2023/11/15 04:22:56;;;;;;;;;;;18.60;57.40;;;;;;1486949;79;1368;-55
2023/11/15 04:24:58;;;;;;;;;;;18.60;57.50;;;;;;1488837;79;691;-60
2023/11/15 04:27:00;;;;;;;;;;;18.60;57.40;;;;;;1476463;79;778;-59
2023/11/15 04:29:01;;;;;;;;;;;18.60;57.40;;;;;;1477803;79;749;-54
2023/11/15 04:31:03;;;;;;;;;;;18.60;57.50;;;;;;1492294;79;1926;-59
2023/11/15 04:33:05;;;;;;;;;;;18.60;57.40;;;;;;1485629;79;1098;-56
2023/11/15 04:35:07;;;;;;;;;;;18.60;57.40;;;;;;1485754;78;728;-59
2023/11/15 04:37:09;;;;;;;;;;;18.60;57.50;;;;;;1487429;79;1367;-58
2023/11/15 04:39:11;;;;;;;;;;;18.60;57.50;;;;;;1477697;79;779;-58
2023/11/15 04:41:13;;;;;;;;;;;18.60;57.50;;;;;;1482885;79;773;-60
2023/11/15 04:43:16;;;;;;;;;;;18.60;57.40;;;;;;1488222;79;1125;-60
2023/11/15 04:45:18;;;;;;;;;;;18.60;57.40;;;;;;1485591;79;683;-60
2023/11/15 04:47:20;;;;;;;;;;;18.60;57.50;;;;;;1486541;79;749;-60
2023/11/15 04:49:22;;;;;;;;;;;18.60;57.50;;;;;;1487286;79;742;-60
2023/11/15 04:51:24;;;;;;;;;;;18.60;57.40;;;;;;1491648;79;1930;-58
2023/11/15 04:53:26;;;;;;;;;;;18.60;57.40;;;;;;1481602;79;1095;-59
2023/11/15 04:55:28;;;;;;;;;;;18.60;57.40;;;;;;1487090;79;676;-58
2023/11/15 04:57:30;;;;;;;;;;;18.60;57.50;;;;;;1482291;79;650;-58
2023/11/15 04:59:32;;;;;;;;;;;18.60;57.50;;;;;;1487298;79;647;-55
2023/11/15 05:01:34;;;;;;;;;;;18.60;57.40;;;;;;1488096;79;790;-57
2023/11/15 05:03:36;;;;;;;;;;;18.60;57.40;;;;;;1484074;79;1162;-58
2023/11/15 05:05:39;;;;;;;;;;;18.60;57.40;;;;;;1482179;79;1649;-60
2023/11/15 05:07:41;;;;;;;;;;;18.60;57.40;;;;;;1482778;79;766;-59
2023/11/15 05:09:43;;;;;;;;;;;18.60;57.40;;;;;;1490769;79;700;-57
2023/11/15 05:11:45;;;;;;;;;;;18.60;57.40;;;;;;1484711;79;1949;-56
2023/11/15 05:13:46;;;;;;;;;;;18.60;57.40;;;;;;1485391;79;703;-58
2023/11/15 05:15:48;;;;;;;;;;;18.60;57.40;;;;;;1490110;79;670;-59
2023/11/15 05:17:50;;;;;;;;;;;18.60;57.40;;;;;;1479268;79;1303;-59
2023/11/15 05:19:52;;;;;;;;;;;18.60;57.40;;;;;;1486333;79;687;-60
2023/11/15 05:21:54;;;;;;;;;;;18.60;57.40;;;;;;1488130;79;1113;-54
2023/11/15 05:23:56;;;;;;;;;;;18.60;57.40;;;;;;1488454;79;688;-57
2023/11/15 05:25:58;;;;;;;;;;;18.60;57.40;;;;;;1486235;79;673;-57
2023/11/15 05:28:00;;;;;;;;;;;18.60;57.40;;;;;;1487989;79;688;-57
2023/11/15 05:30:01;;;;;;;;;;;18.60;57.40;;;;;;1483066;79;723;-58
2023/11/15 05:32:04;;;;;;;;;;;18.60;57.40;;;;;;1487907;79;1929;-57
2023/11/15 05:34:06;;;;;;;;;;;18.60;57.40;;;;;;1483639;79;689;-59
2023/11/15 05:36:08;;;;;;;;;;;18.60;57.40;;;;;;1480975;79;711;-57
2023/11/15 05:38:10;;;;;;;;;;;18.60;57.40;;;;;;1493851;79;698;-60
2023/11/15 05:40:15;;;;;;;;;;;18.60;57.40;;;;;;1481795;79;796;-60
2023/11/15 05:42:17;;;;;;;;;;;18.60;57.40;;;;;;1481333;79;1066;-55
2023/11/15 05:44:19;;;;;;;;;;;18.60;57.40;;;;;;1491218;79;982;-54
2023/11/15 05:46:21;;;;;;;;;;;18.60;57.40;;;;;;1479135;79;1238;-60
2023/11/15 05:48:23;;;;;;;;;;;18.60;57.40;;;;;;1482375;79;682;-55
2023/11/15 05:50:24;;;;;;;;;;;18.60;57.40;;;;;;1491196;79;685;-60
2023/11/15 05:52:26;;;;;;;;;;;18.60;57.40;;;;;;1484079;79;1939;-57
2023/11/15 05:54:28;;;;;;;;;;;18.60;57.30;;;;;;1491641;79;694;-58
2023/11/15 05:56:30;;;;;;;;;;;18.60;57.30;;;;;;1484854;79;669;-55
2023/11/15 05:58:32;;;;;;;;;;;18.60;57.40;;;;;;1483401;79;749;-54
2023/11/15 06:00:34;;;;;;;;;;;18.60;57.40;;;;;;1490216;79;1590;-60
2023/11/15 06:02:36;;;;;;;;;;;18.60;57.30;;;;;;1484800;79;1113;-58
2023/11/15 06:04:38;;;;;;;;;;;18.60;57.30;;;;;;1485806;79;733;-58
2023/11/15 06:06:40;;;;;;;;;;;18.60;57.40;;;;;;1488099;79;764;-59
2023/11/15 06:08:42;;;;;;;;;;;18.60;57.40;;;;;;1493650;79;718;-59
2023/11/15 06:10:44;;;;;;;;;;;18.60;57.40;;;;;;1492657;79;1927;-56
2023/11/15 06:12:46;;;;;;;;;;;18.60;57.40;;;;;;1483470;79;1090;-56
2023/11/15 06:14:48;;;;;;;;;;;18.60;57.40;;;;;;1490027;79;1375;-59
2023/11/15 06:16:50;;;;;;;;;;;18.60;57.40;;;;;;1480461;79;733;-59
2023/11/15 06:18:52;;;;;;;;;;;18.60;57.30;;;;;;1481218;79;800;-58
2023/11/15 06:20:53;;;;;;;;;;;18.60;57.40;;;;;;1482769;79;670;-59
2023/11/15 06:22:56;;;;;;;;;;;18.60;57.40;;;;;;1486165;79;1111;-59
2023/11/15 06:24:58;;;;;;;;;;;18.60;57.30;;;;;;1484813;79;665;-55
2023/11/15 06:27:00;;;;;;;;;;;18.60;57.40;;;;;;1496539;79;684;-55
2023/11/15 06:29:03;;;;;;;;;;;18.60;57.40;;;;;;1482430;79;1455;-59
2023/11/15 06:31:05;;;;;;;;;;;18.60;57.30;;;;;;1480624;79;1922;-58
2023/11/15 06:33:09;;;;;;;;;;;18.60;57.30;;;;;;1477924;79;1096;-58
2023/11/15 06:35:17;;;;;;;;;;;18.60;57.30;;;;;;1488929;79;751;-57
2023/11/15 06:37:14;;;;;;;;;;;18.60;57.30;;;;;;1475270;79;1508;-58
2023/11/15 06:39:18;;;;;;;;;;;18.60;57.30;;;;;;1489378;79;694;-60
2023/11/15 06:41:19;;;;;;;;;;;18.60;57.30;;;;;;1490227;79;1625;-59
2023/11/15 06:43:22;;;;;;;;;;;18.60;57.30;;;;;;1482629;79;1551;-58
2023/11/15 06:45:24;;;;;;;;;;;18.60;57.40;;;;;;1483175;79;650;-57
2023/11/15 06:47:28;;;;;;;;;;;18.60;57.30;;;;;;1487760;79;677;-58
2023/11/15 06:49:29;;;;;;;;;;;18.60;57.30;;;;;;1474202;79;1685;-58
2023/11/15 06:51:31;;;;;;;;;;;18.60;57.40;;;;;;1482257;79;1944;-55
2023/11/15 06:53:33;;;;;;;;;;;18.60;57.30;;;;;;1478913;79;1094;-57
2023/11/15 06:55:35;;;;;;;;;;;18.60;57.30;;;;;;1480933;79;705;-54
2023/11/15 06:57:41;;;;;;;;;;;18.60;57.40;;;;;;1476942;79;1330;-59
2023/11/15 06:59:43;;;;;;;;;;;18.60;57.30;;;;;;1488558;79;733;-56
2023/11/15 07:01:48;;;;;;;;;;;18.60;54.30;;;;;;1482107;79;1106;-60
2023/11/15 07:03:54;;;;;;;;;;;18.50;53.00;;;;;;1479721;78;1461;-57
2023/11/15 07:05:55;;;;;;;;;;;18.40;52.60;;;;;;1482470;79;1641;-58
2023/11/15 07:07:57;;;;;;;;;;;18.30;50.70;;;;;;1479672;79;683;-56
2023/11/15 07:09:59;;;;;;;;;;;18.30;50.70;;;;;;1494211;79;774;-55
2023/11/15 07:12:02;;;;;;;;;;;18.20;50.00;;;;;;1483825;79;1922;-55
2023/11/15 07:14:06;;;;;;;;;;;18.10;49.40;;;;;;1478723;79;751;-56
2023/11/15 07:16:09;;;;;;;;;;;18.10;49.90;;;;;;1488626;78;1579;-59
2023/11/15 07:18:12;;;;;;;;;;;18.00;50.60;;;;;;1482503;79;792;-58
2023/11/15 07:20:14;;;;;;;;;;;18.10;51.60;;;;;;1481708;79;697;-59
2023/11/15 07:22:16;;;;;;;;;;;18.10;52.10;;;;;;1489286;79;1097;-58
2023/11/15 07:24:19;;;;;;;;;;;18.20;52.80;;;;;;1484852;79;680;-59
2023/11/15 07:26:21;;;;;;;;;;;18.10;53.00;;;;;;1488670;79;1371;-59
2023/11/15 07:28:23;;;;;;;;;;;18.20;53.10;;;;;;1482167;79;733;-57
2023/11/15 07:30:27;;;;;;;;;;;18.30;53.40;;;;;;1474766;79;769;-58
2023/11/15 07:32:28;;;;;;;;;;;18.30;53.40;;;;;;1493551;79;1915;-58
2023/11/15 07:34:33;;;;;;;;;;;18.30;53.40;;;;;;1488762;79;688;-54
2023/11/15 07:36:35;;;;;;;;;;;18.30;53.60;;;;;;1486447;79;1502;-55
2023/11/15 07:38:37;;;;;;;;;;;18.40;53.60;;;;;;1491405;79;1557;-57
2023/11/15 07:40:40;;;;;;;;;;;18.40;53.60;;;;;;1481714;79;723;-59
2023/11/15 07:42:42;;;;;;;;;;;18.40;53.80;;;;;;1481321;79;1146;-59
2023/11/15 07:44:45;;;;;;;;;;;18.40;53.70;;;;;;1483618;79;759;-56
2023/11/15 07:46:49;;;;;;;;;;;18.40;53.80;;;;;;1489797;79;810;-59
2023/11/15 07:48:51;;;;;;;;;;;18.40;53.70;;;;;;1485030;79;1722;-58
2023/11/15 07:50:54;;;;;;;;;;;18.50;54.00;;;;;;1480647;79;683;-58
2023/11/15 07:52:56;;;;;;;;;;;18.40;53.90;;;;;;1480331;79;1930;-57
2023/11/15 07:54:58;;;;;;;;;;;18.50;54.00;;;;;;1486828;79;673;-59
2023/11/15 07:57:00;;;;;;;;;;;18.40;53.90;;;;;;1485009;79;657;-58
2023/11/15 07:59:02;;;;;;;;;;;18.50;54.10;;;;;;1484856;79;678;-58
2023/11/15 08:01:04;;;;;;;;;;;18.50;54.20;;;;;;1485562;79;714;-59
2023/11/15 08:03:07;;;;;;;;;;;18.50;54.20;;;;;;1487634;79;1150;-58
2023/11/15 08:05:10;;;;;;;;;;;18.50;54.20;;;;;;1489069;79;715;-57
2023/11/15 08:07:11;;;;;;;;;;;18.50;54.20;;;;;;1488367;79;1544;-57
2023/11/15 08:09:26;;;;;;;;;;;18.50;54.30;;;;;;1483559;79;759;-57
2023/11/15 08:11:28;;;;;;;;;;;18.50;54.40;;;;;;1488469;79;1925;-57
2023/11/15 08:13:30;;;;;;;;;;;18.50;54.40;;;;;;1481932;79;1097;-54
2023/11/15 08:15:32;;;;;;;;;;;18.50;54.40;;;;;;1490717;79;763;-56
2023/11/15 08:17:35;;;;;;;;;;;18.50;54.50;;;;;;1487611;79;756;-55
2023/11/15 08:19:38;;;;;;;;;;;18.50;54.40;;;;;;1487139;79;766;-57
2023/11/15 08:21:39;;;;;;;;;;;18.50;54.50;;;;;;1491433;79;1543;-59
2023/11/15 08:23:42;;;;;;;;;;;18.60;54.60;;;;;;1484895;79;720;-59
2023/11/15 08:25:50;;;;;;;;;;;18.60;54.60;;;;;;1481737;79;756;-59
2023/11/15 08:27:51;;;;;;;;;;;18.60;54.70;;;;;;1485598;79;1661;-55
2023/11/15 08:29:53;;;;;;;;;;;18.50;54.70;;;;;;1484898;79;691;-59
2023/11/15 08:31:56;;;;;;;;;;;18.60;54.70;;;;;;1493902;79;1939;-56
2023/11/15 08:33:57;;;;;;;;;;;18.60;54.70;;;;;;1488358;79;777;-56
2023/11/15 08:35:59;;;;;;;;;;;18.60;54.80;;;;;;1490792;79;1329;-56
2023/11/15 08:38:02;;;;;;;;;;;18.60;54.80;;;;;;1488828;79;745;-56
2023/11/15 08:40:04;;;;;;;;;;;18.60;54.80;;;;;;1480857;79;724;-59
2023/11/15 08:42:07;;;;;;;;;;;18.60;54.90;;;;;;1487066;79;1133;-60
2023/11/15 08:44:09;;;;;;;;;;;18.60;55.00;;;;;;1487225;79;716;-59
2023/11/15 08:46:11;;;;;;;;;;;18.60;54.90;;;;;;1482852;79;775;-59
2023/11/15 08:48:17;;;;;;;;;;;18.60;55.00;;;;;;1486069;79;771;-58
2023/11/15 08:50:18;;;;;;;;;;;18.50;55.00;;;;;;1485767;79;1670;-59
2023/11/15 08:52:23;;;;;;;;;;;18.60;55.00;;;;;;1484877;79;1928;-58
2023/11/15 08:54:24;;;;;;;;;;;18.60;55.10;;;;;;1491654;79;1627;-57
2023/11/15 08:56:26;;;;;;;;;;;18.50;55.10;;;;;;1492578;79;749;-56
2023/11/15 08:58:27;;;;;;;;;;;18.60;55.10;;;;;;1491020;79;762;-58
2023/11/15 09:00:31;;;;;;;;;;;18.60;55.20;;;;;;1473925;79;708;-58
2023/11/15 09:02:33;;;;;;;;;;;18.60;55.20;;;;;;1490918;79;1131;-58
2023/11/15 09:04:37;;;;;;;;;;;18.60;55.20;;;;;;1489930;79;1299;-59
2023/11/15 09:06:39;;;;;;;;;;;18.60;55.20;;;;;;1486690;79;735;-59
2023/11/15 09:08:41;;;;;;;;;;;18.60;55.20;;;;;;1476602;79;704;-59
2023/11/15 09:10:43;;;;;;;;;;;18.50;55.30;;;;;;1477800;79;709;-59
2023/11/15 09:12:46;;;;;;;;;;;18.60;55.20;;;;;;1492759;79;1949;-60
2023/11/15 09:14:49;;;;;;;;;;;18.60;55.30;;;;;;1489002;79;856;-59
2023/11/15 09:16:54;;;;;;;;;;;18.50;55.30;;;;;;1484667;79;773;-60
2023/11/15 09:18:59;;;;;;;;;;;18.60;55.30;;;;;;1482511;79;749;-60
2023/11/15 09:21:00;;;;;;;;;;;18.60;55.30;;;;;;1486572;78;1562;-58
2023/11/15 09:23:06;;;;;;;;;;;18.60;55.20;;;;;;1481637;79;1102;-59
2023/11/15 09:25:07;;;;;;;;;;;18.60;55.30;;;;;;1486271;79;1660;-59
2023/11/15 09:27:09;;;;;;;;;;;18.60;55.40;;;;;;1489516;79;717;-59
2023/11/15 09:29:11;;;;;;;;;;;18.60;55.30;;;;;;1487064;79;706;-59
2023/11/15 09:31:13;;;;;;;;;;;18.60;55.40;;;;;;1493403;79;1555;-59
2023/11/15 09:33:16;;;;;;;;;;;18.60;55.20;;;;;;1483468;79;1927;-59
2023/11/15 09:35:21;;;;;;;;;;;18.60;55.30;;;;;;1482476;79;780;-59
2023/11/15 09:37:22;;;;;;;;;;;18.60;55.40;;;;;;1486138;79;1708;-60
2023/11/15 09:39:24;;;;;;;;;;;18.60;55.30;;;;;;1479791;79;716;-59
2023/11/15 09:41:26;;;;;;;;;;;18.60;55.30;;;;;;1478836;79;724;-60
2023/11/15 09:43:28;;;;;;;;;;;18.60;55.30;;;;;;1483805;79;1123;-59
2023/11/15 09:45:32;;;;;;;;;;;18.60;55.50;;;;;;1484528;79;1371;-58
2023/11/15 09:47:34;;;;;;;;;;;18.60;55.20;;;;;;1477666;79;692;-59
2023/11/15 09:49:36;;;;;;;;;;;18.60;55.20;;;;;;1487365;79;745;-58
2023/11/15 09:51:40;;;;;;;;;;;18.70;55.40;;;;;;1481454;79;713;-60
2023/11/15 09:53:41;;;;;;;;;;;18.60;55.30;;;;;;1484967;79;1942;-59
2023/11/15 09:55:43;;;;;;;;;;;18.70;55.40;;;;;;1480753;79;689;-60
2023/11/15 09:57:46;;;;;;;;;;;18.60;55.30;;;;;;1487789;79;662;-60
2023/11/15 09:59:48;;;;;;;;;;;18.70;55.50;;;;;;1480964;79;1571;-59
2023/11/15 10:01:50;;;;;;;;;;;18.70;55.50;;;;;;1483708;79;1118;-59
2023/11/15 10:03:52;;;;;;;;;;;18.70;55.50;;;;;;1485903;79;680;-58
2023/11/15 10:06:03;;;;;;;;;;;18.70;55.50;;;;;;1477329;79;718;-59
2023/11/15 10:08:17;;;;;;;;;;;18.70;55.50;;;;;;1487883;79;1589;-59
2023/11/15 10:10:21;;;;;;;;;;;18.70;55.60;;;;;;1491643;79;1750;-60
2023/11/15 10:12:23;;;;;;;;;;;18.70;55.50;;;;;;1481994;79;1946;-58
2023/11/15 10:14:24;;;;;;;;;;;18.80;55.60;;;;;;1482553;79;1555;-59
2023/11/15 10:16:30;;;;;;;;;;;18.70;55.60;;;;;;1483001;79;766;-58
2023/11/15 10:18:32;;;;;;;;;;;18.80;55.60;;;;;;1487679;79;1385;-58
2023/11/15 10:20:33;;;;;;;;;;;18.70;55.60;;;;;;1484019;79;701;-59
2023/11/15 10:22:37;;;;;;;;;;;18.70;55.70;;;;;;1488371;79;1184;-59
2023/11/15 10:24:39;;;;;;;;;;;18.80;55.70;;;;;;1478452;79;1886;-59
2023/11/15 10:26:41;;;;;;;;;;;18.80;55.70;;;;;;1479070;79;695;-59
2023/11/15 10:28:44;;;;;;;;;;;18.70;55.70;;;;;;1477962;79;1579;-59
2023/11/15 10:30:50;;;;;;;;;;;18.70;55.80;;;;;;1487661;79;1096;-60
2023/11/15 10:32:51;;;;;;;;;;;18.70;55.90;;;;;;1492455;79;1947;-60
2023/11/15 10:34:53;;;;;;;;;;;18.70;54.20;;;;;;1472932;79;715;-59
2023/11/15 10:37:03;;;;;;;;;;;18.70;55.00;;;;;;1486856;79;742;-59
2023/11/15 10:39:05;;;;;;;;;;;18.80;55.50;;;;;;1485765;79;786;-58
2023/11/15 10:41:08;;;;;;;;;;;18.70;55.70;;;;;;1489198;79;796;-59
2023/11/15 10:43:11;;;;;;;;;;;18.60;54.70;;;;;;1490869;79;1676;-59
2023/11/15 10:45:13;;;;;;;;;;;18.70;55.30;;;;;;1482081;79;757;-59
2023/11/15 10:47:19;;;;;;;;;;;18.70;55.60;;;;;;1485356;79;723;-58
2023/11/15 10:49:20;;;;;;;;;;;18.80;55.70;;;;;;1475545;79;1668;-57
2023/11/15 10:51:22;;;;;;;;;;;18.70;55.80;;;;;;1485895;79;783;-59
2023/11/15 10:53:25;;;;;;;;;;;18.70;55.80;;;;;;1481146;79;1943;-59
2023/11/15 10:55:32;;;;;;;;;;;18.70;55.80;;;;;;1494289;79;1384;-59
2023/11/15 10:57:31;;;;;;;;;;;18.70;55.90;;;;;;1475755;79;1507;-59
2023/11/15 10:59:37;;;;;;;;;;;18.70;55.90;;;;;;1487634;79;1085;-59
2023/11/15 11:01:39;;;;;;;;;;;18.70;55.90;;;;;;1484896;79;1611;-57
2023/11/15 11:03:41;;;;;;;;;;;18.70;56.00;;;;;;1472430;79;1562;-59
2023/11/15 11:05:44;;;;;;;;;;;18.70;56.00;;;;;;1474453;79;1512;-59
2023/11/15 11:08:08;;;;;;;;;;;18.70;56.00;;;;;;1476901;79;1574;-58
2023/11/15 11:10:18;;;;;;;;;;;18.70;56.00;;;;;;1439947;81;1666;-58
2023/11/15 11:12:25;;;;;;;;;;;18.70;56.00;;;;;;1442867;81;1371;-59
2023/11/15 11:14:31;;;;;;;;;;;18.70;56.00;;;;;;1436888;81;1924;-59
2023/11/15 11:16:34;;;;;;;;;;;18.70;56.00;;;;;;1482777;79;1410;-59
2023/11/15 11:18:36;;;;;;;;;;;18.70;56.00;;;;;;1481122;79;1522;-58
2023/11/15 11:20:40;;;;;;;;;;;18.70;56.00;;;;;;1483028;79;1342;-59
2023/11/15 11:22:43;;;;;;;;;;;18.70;56.00;;;;;;1478778;79;1732;-59
2023/11/15 11:25:06;;;;;;;;;;;18.70;56.00;;;;;;1478460;79;1693;-59
2023/11/15 11:27:14;;;;;;;;;;;18.70;56.00;;;;;;1483402;79;1740;-59
2023/11/15 11:29:18;;;;;;;;;;;18.70;56.10;;;;;;1479671;79;1536;-59
2023/11/15 11:31:20;;;;;;;;;;;18.70;56.10;;;;;;1481111;79;1337;-59
2023/11/15 11:33:21;;;;;;;;;;;18.70;56.10;;;;;;1484485;79;1959;-60
2023/11/15 11:35:30;;;;;;;;;;;18.70;56.20;;;;;;1479240;79;1088;-60
2023/11/15 11:37:47;;;;;;;;;;;18.70;56.10;;;;;;1479065;79;1704;-60
2023/11/15 11:39:50;;;;;;;;;;;18.70;56.10;;;;;;1484809;79;1262;-59
2023/11/15 11:41:54;;;;;;;;;;;18.70;56.20;;;;;;1482126;79;1271;-60
2023/11/15 11:44:04;;;;;;;;;;;18.70;56.20;;;;;;1479010;79;1651;-59
2023/11/15 11:46:01;;;;;;;;;;;18.70;56.20;;;;;;1475711;79;1534;-57
2023/11/15 11:48:03;;;;;;;;;;;18.70;56.30;;;;;;1476354;79;1505;-55
2023/11/15 11:50:11;;;;;;;;;;;18.60;56.10;;;;;;1483608;79;1086;-56
2023/11/15 11:52:09;;;;;;;;;;;18.70;56.30;;;;;;1477379;79;1525;-59
2023/11/15 11:54:12;;;;;;;;;;;18.70;56.30;;;;;;1484313;79;1961;-60
2023/11/15 11:56:15;;;;;;;;;;;18.70;56.30;;;;;;1484965;79;1271;-59
2023/11/15 11:58:17;;;;;;;;;;;18.70;56.30;;;;;;1472590;79;740;-60
2023/11/15 12:00:20;;;;;;;;;;;18.70;56.30;;;;;;1483922;79;895;-59
2023/11/15 12:02:24;;;;;;;;;;;18.70;56.30;;;;;;1488486;79;1142;-53
2023/11/15 12:04:26;;;;;;;;;;;18.70;56.30;;;;;;1483481;79;1888;-59
2023/11/15 12:06:28;;;;;;;;;;;18.70;56.30;;;;;;1485711;79;1287;-59
2023/11/15 12:08:31;;;;;;;;;;;18.70;56.30;;;;;;1486173;79;666;-59